sensor_id;sensor_type;location;lat;lon;timestamp;P1;durP1;ratioP1;P2;durP2;ratioP2
84345;SDS011;74709;53.128;18.020;2024-02-23T00:00:40;9.00;;;6.00;;
84345;SDS011;74709;53.128;18.020;2024-02-23T00:02:03;8.60;;;6.00;;
84345;SDS011;74709;53.128;18.020;2024-02-23T00:03:06;8.90;;;6.20;;
84345;SDS011;74709;53.128;18.020;2024-02-23T00:04:10;8.90;;;6.10;;
84345;SDS011;74709;53.128;18.020;2024-02-23T00:05:13;9.00;;;6.30;;
84345;SDS011;74709;53.128;18.020;2024-02-23T00:06:16;9.20;;;6.40;;
84345;SDS011;74709;53.128;18.020;2024-02-23T00:07:19;11.90;;;6.10;;
84345;SDS011;74709;53.128;18.020;2024-02-23T00:08:22;10.60;;;6.50;;
84345;SDS011;74709;53.128;18.020;2024-02-23T00:09:25;6.90;;;5.00;;
84345;SDS011;74709;53.128;18.020;2024-02-23T00:10:29;8.60;;;5.70;;
84345;SDS011;74709;53.128;18.020;2024-02-23T00:11:32;9.60;;;6.00;;
84345;SDS011;74709;53.128;18.020;2024-02-23T00:12:35;9.70;;;5.70;;
84345;SDS011;74709;53.128;18.020;2024-02-23T00:13:38;9.00;;;6.20;;
84345;SDS011;74709;53.128;18.020;2024-02-23T00:14:41;7.80;;;5.30;;
84345;SDS011;74709;53.128;18.020;2024-02-23T00:15:44;9.90;;;6.00;;
84345;SDS011;74709;53.128;18.020;2024-02-23T00:16:47;8.10;;;5.30;;
84345;SDS011;74709;53.128;18.020;2024-02-23T00:17:49;10.00;;;5.90;;
84345;SDS011;74709;53.128;18.020;2024-02-23T00:18:52;8.00;;;5.30;;
84345;SDS011;74709;53.128;18.020;2024-02-23T00:19:55;9.40;;;6.10;;
84345;SDS011;74709;53.128;18.020;2024-02-23T00:20:58;9.60;;;5.90;;
84345;SDS011;74709;53.128;18.020;2024-02-23T00:22:01;11.20;;;6.30;;
84345;SDS011;74709;53.128;18.020;2024-02-23T00:23:03;8.80;;;5.70;;
84345;SDS011;74709;53.128;18.020;2024-02-23T00:24:06;8.40;;;5.50;;
84345;SDS011;74709;53.128;18.020;2024-02-23T00:25:09;9.00;;;5.70;;
84345;SDS011;74709;53.128;18.020;2024-02-23T00:26:12;11.20;;;5.60;;
84345;SDS011;74709;53.128;18.020;2024-02-23T00:27:15;8.90;;;5.50;;
84345;SDS011;74709;53.128;18.020;2024-02-23T00:28:17;9.40;;;5.40;;
84345;SDS011;74709;53.128;18.020;2024-02-23T00:29:20;9.80;;;6.10;;
84345;SDS011;74709;53.128;18.020;2024-02-23T00:30:24;8.30;;;5.40;;
84345;SDS011;74709;53.128;18.020;2024-02-23T00:31:27;13.50;;;7.00;;
84345;SDS011;74709;53.128;18.020;2024-02-23T00:32:30;9.60;;;5.50;;
84345;SDS011;74709;53.128;18.020;2024-02-23T00:33:32;12.00;;;6.10;;
84345;SDS011;74709;53.128;18.020;2024-02-23T00:34:36;10.10;;;6.20;;
84345;SDS011;74709;53.128;18.020;2024-02-23T00:35:39;8.10;;;5.00;;
84345;SDS011;74709;53.128;18.020;2024-02-23T00:36:42;9.70;;;5.40;;
84345;SDS011;74709;53.128;18.020;2024-02-23T00:37:47;7.30;;;5.40;;
84345;SDS011;74709;53.128;18.020;2024-02-23T00:38:50;9.70;;;6.30;;
84345;SDS011;74709;53.128;18.020;2024-02-23T00:39:52;7.10;;;5.20;;
84345;SDS011;74709;53.128;18.020;2024-02-23T00:40:55;8.20;;;5.90;;
84345;SDS011;74709;53.128;18.020;2024-02-23T00:41:58;8.60;;;6.10;;
84345;SDS011;74709;53.128;18.020;2024-02-23T00:43:01;8.00;;;5.30;;
84345;SDS011;74709;53.128;18.020;2024-02-23T00:44:05;9.40;;;5.50;;
84345;SDS011;74709;53.128;18.020;2024-02-23T00:45:08;9.70;;;6.20;;
84345;SDS011;74709;53.128;18.020;2024-02-23T00:46:11;7.60;;;4.60;;
84345;SDS011;74709;53.128;18.020;2024-02-23T00:47:14;9.30;;;6.10;;
84345;SDS011;74709;53.128;18.020;2024-02-23T00:48:17;8.90;;;5.60;;
84345;SDS011;74709;53.128;18.020;2024-02-23T00:49:19;9.10;;;5.50;;
84345;SDS011;74709;53.128;18.020;2024-02-23T00:50:22;8.70;;;5.90;;
84345;SDS011;74709;53.128;18.020;2024-02-23T00:51:29;9.40;;;5.00;;
84345;SDS011;74709;53.128;18.020;2024-02-23T00:52:32;8.90;;;5.50;;
84345;SDS011;74709;53.128;18.020;2024-02-23T00:53:35;8.80;;;5.80;;
84345;SDS011;74709;53.128;18.020;2024-02-23T00:54:37;8.30;;;5.70;;
84345;SDS011;74709;53.128;18.020;2024-02-23T00:55:40;8.50;;;5.10;;
84345;SDS011;74709;53.128;18.020;2024-02-23T00:56:44;8.40;;;6.20;;
84345;SDS011;74709;53.128;18.020;2024-02-23T00:57:47;7.50;;;5.40;;
84345;SDS011;74709;53.128;18.020;2024-02-23T00:58:50;9.40;;;4.80;;
84345;SDS011;74709;53.128;18.020;2024-02-23T00:59:53;10.00;;;6.90;;
84345;SDS011;74709;53.128;18.020;2024-02-23T01:00:56;8.10;;;5.20;;
84345;SDS011;74709;53.128;18.020;2024-02-23T01:01:58;9.90;;;5.80;;
84345;SDS011;74709;53.128;18.020;2024-02-23T01:03:02;9.00;;;5.60;;
84345;SDS011;74709;53.128;18.020;2024-02-23T01:04:04;10.80;;;5.60;;
84345;SDS011;74709;53.128;18.020;2024-02-23T01:05:07;10.40;;;6.00;;
84345;SDS011;74709;53.128;18.020;2024-02-23T01:06:11;10.60;;;6.30;;
84345;SDS011;74709;53.128;18.020;2024-02-23T01:07:14;10.60;;;6.50;;
84345;SDS011;74709;53.128;18.020;2024-02-23T01:08:17;7.30;;;5.00;;
84345;SDS011;74709;53.128;18.020;2024-02-23T01:09:20;10.00;;;6.00;;
84345;SDS011;74709;53.128;18.020;2024-02-23T01:10:23;11.30;;;6.00;;
84345;SDS011;74709;53.128;18.020;2024-02-23T01:11:26;10.80;;;6.20;;
84345;SDS011;74709;53.128;18.020;2024-02-23T01:12:28;8.80;;;5.70;;
84345;SDS011;74709;53.128;18.020;2024-02-23T01:13:31;10.20;;;6.30;;
84345;SDS011;74709;53.128;18.020;2024-02-23T01:14:34;10.00;;;5.70;;
84345;SDS011;74709;53.128;18.020;2024-02-23T01:15:37;8.10;;;5.70;;
84345;SDS011;74709;53.128;18.020;2024-02-23T01:16:40;11.60;;;6.50;;
84345;SDS011;74709;53.128;18.020;2024-02-23T01:17:43;10.20;;;6.50;;
84345;SDS011;74709;53.128;18.020;2024-02-23T01:18:45;7.40;;;5.10;;
84345;SDS011;74709;53.128;18.020;2024-02-23T01:19:48;9.20;;;5.30;;
84345;SDS011;74709;53.128;18.020;2024-02-23T01:20:52;12.40;;;6.40;;
84345;SDS011;74709;53.128;18.020;2024-02-23T01:21:55;6.90;;;4.70;;
84345;SDS011;74709;53.128;18.020;2024-02-23T01:23:02;11.10;;;6.10;;
84345;SDS011;74709;53.128;18.020;2024-02-23T01:24:05;8.10;;;5.80;;
84345;SDS011;74709;53.128;18.020;2024-02-23T01:25:08;10.10;;;5.60;;
84345;SDS011;74709;53.128;18.020;2024-02-23T01:26:10;9.80;;;6.30;;
84345;SDS011;74709;53.128;18.020;2024-02-23T01:27:13;8.20;;;5.90;;
84345;SDS011;74709;53.128;18.020;2024-02-23T01:28:16;8.40;;;6.00;;
84345;SDS011;74709;53.128;18.020;2024-02-23T01:29:19;10.60;;;5.70;;
84345;SDS011;74709;53.128;18.020;2024-02-23T01:30:22;9.60;;;6.30;;
84345;SDS011;74709;53.128;18.020;2024-02-23T01:31:25;9.50;;;6.30;;
84345;SDS011;74709;53.128;18.020;2024-02-23T01:32:28;9.30;;;5.30;;
84345;SDS011;74709;53.128;18.020;2024-02-23T01:33:31;9.20;;;5.80;;
84345;SDS011;74709;53.128;18.020;2024-02-23T01:34:34;11.30;;;5.80;;
84345;SDS011;74709;53.128;18.020;2024-02-23T01:35:37;8.50;;;5.70;;
84345;SDS011;74709;53.128;18.020;2024-02-23T01:36:40;8.90;;;5.70;;
84345;SDS011;74709;53.128;18.020;2024-02-23T01:37:42;10.80;;;5.80;;
84345;SDS011;74709;53.128;18.020;2024-02-23T01:38:46;8.80;;;5.80;;
84345;SDS011;74709;53.128;18.020;2024-02-23T01:39:49;6.70;;;4.50;;
84345;SDS011;74709;53.128;18.020;2024-02-23T01:40:52;9.80;;;5.70;;
84345;SDS011;74709;53.128;18.020;2024-02-23T01:41:54;9.80;;;6.10;;
84345;SDS011;74709;53.128;18.020;2024-02-23T01:43:01;10.60;;;6.00;;
84345;SDS011;74709;53.128;18.020;2024-02-23T01:44:05;8.70;;;5.10;;
84345;SDS011;74709;53.128;18.020;2024-02-23T01:45:08;11.40;;;5.90;;
84345;SDS011;74709;53.128;18.020;2024-02-23T01:46:11;7.90;;;5.40;;
84345;SDS011;74709;53.128;18.020;2024-02-23T01:47:13;9.00;;;6.00;;
84345;SDS011;74709;53.128;18.020;2024-02-23T01:48:18;8.00;;;5.50;;
84345;SDS011;74709;53.128;18.020;2024-02-23T01:49:21;9.30;;;5.30;;
84345;SDS011;74709;53.128;18.020;2024-02-23T01:50:25;10.50;;;5.80;;
84345;SDS011;74709;53.128;18.020;2024-02-23T01:51:28;8.80;;;5.80;;
84345;SDS011;74709;53.128;18.020;2024-02-23T01:52:31;8.50;;;5.70;;
84345;SDS011;74709;53.128;18.020;2024-02-23T01:53:34;9.60;;;5.60;;
84345;SDS011;74709;53.128;18.020;2024-02-23T01:54:36;6.60;;;5.20;;
84345;SDS011;74709;53.128;18.020;2024-02-23T01:55:40;8.40;;;5.60;;
84345;SDS011;74709;53.128;18.020;2024-02-23T01:56:43;12.10;;;6.00;;
84345;SDS011;74709;53.128;18.020;2024-02-23T01:57:46;8.50;;;5.50;;
84345;SDS011;74709;53.128;18.020;2024-02-23T01:58:50;8.30;;;5.80;;
84345;SDS011;74709;53.128;18.020;2024-02-23T01:59:52;11.50;;;5.50;;
84345;SDS011;74709;53.128;18.020;2024-02-23T02:00:56;9.20;;;5.30;;
84345;SDS011;74709;53.128;18.020;2024-02-23T02:01:58;9.10;;;5.50;;
84345;SDS011;74709;53.128;18.020;2024-02-23T02:03:02;7.70;;;5.60;;
84345;SDS011;74709;53.128;18.020;2024-02-23T02:04:06;7.50;;;5.20;;
84345;SDS011;74709;53.128;18.020;2024-02-23T02:05:09;9.90;;;6.70;;
84345;SDS011;74709;53.128;18.020;2024-02-23T02:06:12;9.80;;;5.60;;
84345;SDS011;74709;53.128;18.020;2024-02-23T02:07:15;9.30;;;5.70;;
84345;SDS011;74709;53.128;18.020;2024-02-23T02:08:17;8.60;;;5.10;;
84345;SDS011;74709;53.128;18.020;2024-02-23T02:09:20;9.30;;;6.40;;
84345;SDS011;74709;53.128;18.020;2024-02-23T02:10:23;8.80;;;5.40;;
84345;SDS011;74709;53.128;18.020;2024-02-23T02:11:26;9.60;;;6.30;;
84345;SDS011;74709;53.128;18.020;2024-02-23T02:12:28;9.30;;;5.60;;
84345;SDS011;74709;53.128;18.020;2024-02-23T02:13:31;12.90;;;5.50;;
84345;SDS011;74709;53.128;18.020;2024-02-23T02:14:34;8.60;;;6.20;;
84345;SDS011;74709;53.128;18.020;2024-02-23T02:15:37;9.00;;;5.50;;
84345;SDS011;74709;53.128;18.020;2024-02-23T02:16:40;9.50;;;5.50;;
84345;SDS011;74709;53.128;18.020;2024-02-23T02:17:43;10.00;;;5.60;;
84345;SDS011;74709;53.128;18.020;2024-02-23T02:18:46;9.20;;;6.40;;
84345;SDS011;74709;53.128;18.020;2024-02-23T02:19:49;9.70;;;5.50;;
84345;SDS011;74709;53.128;18.020;2024-02-23T02:20:56;9.90;;;5.90;;
84345;SDS011;74709;53.128;18.020;2024-02-23T02:22:00;8.60;;;5.60;;
84345;SDS011;74709;53.128;18.020;2024-02-23T02:23:03;26.80;;;8.20;;
84345;SDS011;74709;53.128;18.020;2024-02-23T02:24:06;7.40;;;4.90;;
84345;SDS011;74709;53.128;18.020;2024-02-23T02:25:09;9.50;;;5.80;;
84345;SDS011;74709;53.128;18.020;2024-02-23T02:26:12;10.30;;;5.80;;
84345;SDS011;74709;53.128;18.020;2024-02-23T02:27:15;9.00;;;5.40;;
84345;SDS011;74709;53.128;18.020;2024-02-23T02:28:18;8.90;;;5.60;;
84345;SDS011;74709;53.128;18.020;2024-02-23T02:29:20;8.50;;;5.50;;
84345;SDS011;74709;53.128;18.020;2024-02-23T02:30:23;9.80;;;5.40;;
84345;SDS011;74709;53.128;18.020;2024-02-23T02:31:26;7.90;;;5.50;;
84345;SDS011;74709;53.128;18.020;2024-02-23T02:32:29;9.50;;;5.70;;
84345;SDS011;74709;53.128;18.020;2024-02-23T02:33:31;6.70;;;4.70;;
84345;SDS011;74709;53.128;18.020;2024-02-23T02:34:34;8.40;;;4.90;;
84345;SDS011;74709;53.128;18.020;2024-02-23T02:35:37;8.50;;;5.70;;
84345;SDS011;74709;53.128;18.020;2024-02-23T02:36:40;10.80;;;5.60;;
84345;SDS011;74709;53.128;18.020;2024-02-23T02:37:43;8.40;;;5.00;;
84345;SDS011;74709;53.128;18.020;2024-02-23T02:38:46;7.80;;;5.50;;
84345;SDS011;74709;53.128;18.020;2024-02-23T02:39:48;9.10;;;5.70;;
84345;SDS011;74709;53.128;18.020;2024-02-23T02:40:51;6.60;;;4.90;;
84345;SDS011;74709;53.128;18.020;2024-02-23T02:41:54;6.70;;;4.60;;
84345;SDS011;74709;53.128;18.020;2024-02-23T02:42:57;6.40;;;4.60;;
84345;SDS011;74709;53.128;18.020;2024-02-23T02:44:00;9.40;;;4.90;;
84345;SDS011;74709;53.128;18.020;2024-02-23T02:45:03;8.90;;;5.10;;
84345;SDS011;74709;53.128;18.020;2024-02-23T02:46:06;8.20;;;5.50;;
84345;SDS011;74709;53.128;18.020;2024-02-23T02:47:09;6.30;;;4.20;;
84345;SDS011;74709;53.128;18.020;2024-02-23T02:48:12;7.30;;;4.80;;
84345;SDS011;74709;53.128;18.020;2024-02-23T02:49:14;6.50;;;4.80;;
84345;SDS011;74709;53.128;18.020;2024-02-23T02:50:17;7.40;;;4.30;;
84345;SDS011;74709;53.128;18.020;2024-02-23T02:51:20;8.10;;;4.70;;
84345;SDS011;74709;53.128;18.020;2024-02-23T02:52:23;7.10;;;5.20;;
84345;SDS011;74709;53.128;18.020;2024-02-23T02:53:26;8.10;;;5.30;;
84345;SDS011;74709;53.128;18.020;2024-02-23T02:54:29;6.20;;;4.50;;
84345;SDS011;74709;53.128;18.020;2024-02-23T02:55:32;5.60;;;4.60;;
84345;SDS011;74709;53.128;18.020;2024-02-23T02:56:34;6.50;;;4.60;;
84345;SDS011;74709;53.128;18.020;2024-02-23T02:57:37;7.60;;;4.90;;
84345;SDS011;74709;53.128;18.020;2024-02-23T02:58:40;9.30;;;4.60;;
84345;SDS011;74709;53.128;18.020;2024-02-23T02:59:43;7.40;;;4.90;;
84345;SDS011;74709;53.128;18.020;2024-02-23T03:00:47;6.30;;;4.40;;
84345;SDS011;74709;53.128;18.020;2024-02-23T03:01:50;9.40;;;4.90;;
84345;SDS011;74709;53.128;18.020;2024-02-23T03:02:52;7.10;;;4.60;;
84345;SDS011;74709;53.128;18.020;2024-02-23T03:03:55;7.20;;;4.50;;
84345;SDS011;74709;53.128;18.020;2024-02-23T03:04:58;6.80;;;4.50;;
84345;SDS011;74709;53.128;18.020;2024-02-23T03:06:01;7.10;;;4.70;;
84345;SDS011;74709;53.128;18.020;2024-02-23T03:07:04;7.10;;;4.90;;
84345;SDS011;74709;53.128;18.020;2024-02-23T03:08:07;8.80;;;4.60;;
84345;SDS011;74709;53.128;18.020;2024-02-23T03:09:10;7.10;;;4.40;;
84345;SDS011;74709;53.128;18.020;2024-02-23T03:10:12;6.60;;;4.30;;
84345;SDS011;74709;53.128;18.020;2024-02-23T03:11:15;6.90;;;4.20;;
84345;SDS011;74709;53.128;18.020;2024-02-23T03:12:18;8.90;;;4.10;;
84345;SDS011;74709;53.128;18.020;2024-02-23T03:13:21;5.90;;;4.10;;
84345;SDS011;74709;53.128;18.020;2024-02-23T03:14:25;5.40;;;4.20;;
84345;SDS011;74709;53.128;18.020;2024-02-23T03:15:28;7.30;;;4.60;;
84345;SDS011;74709;53.128;18.020;2024-02-23T03:16:30;7.70;;;4.80;;
84345;SDS011;74709;53.128;18.020;2024-02-23T03:17:33;7.00;;;4.30;;
84345;SDS011;74709;53.128;18.020;2024-02-23T03:18:36;6.80;;;4.20;;
84345;SDS011;74709;53.128;18.020;2024-02-23T03:19:39;6.90;;;4.10;;
84345;SDS011;74709;53.128;18.020;2024-02-23T03:20:42;8.00;;;4.20;;
84345;SDS011;74709;53.128;18.020;2024-02-23T03:21:45;5.90;;;3.90;;
84345;SDS011;74709;53.128;18.020;2024-02-23T03:22:47;6.10;;;4.10;;
84345;SDS011;74709;53.128;18.020;2024-02-23T03:23:50;5.70;;;4.10;;
84345;SDS011;74709;53.128;18.020;2024-02-23T03:24:53;6.30;;;4.40;;
84345;SDS011;74709;53.128;18.020;2024-02-23T03:25:56;5.60;;;3.80;;
84345;SDS011;74709;53.128;18.020;2024-02-23T03:26:58;5.10;;;3.90;;
84345;SDS011;74709;53.128;18.020;2024-02-23T03:28:02;5.60;;;3.70;;
84345;SDS011;74709;53.128;18.020;2024-02-23T03:29:05;5.30;;;3.70;;
84345;SDS011;74709;53.128;18.020;2024-02-23T03:30:07;7.20;;;4.10;;
84345;SDS011;74709;53.128;18.020;2024-02-23T03:31:12;5.40;;;3.90;;
84345;SDS011;74709;53.128;18.020;2024-02-23T03:32:15;6.60;;;3.50;;
84345;SDS011;74709;53.128;18.020;2024-02-23T03:33:18;4.70;;;3.50;;
84345;SDS011;74709;53.128;18.020;2024-02-23T03:34:20;5.10;;;3.80;;
84345;SDS011;74709;53.128;18.020;2024-02-23T03:35:23;4.50;;;3.60;;
84345;SDS011;74709;53.128;18.020;2024-02-23T03:36:26;5.30;;;3.80;;
84345;SDS011;74709;53.128;18.020;2024-02-23T03:37:29;5.40;;;3.90;;
84345;SDS011;74709;53.128;18.020;2024-02-23T03:38:32;5.60;;;4.10;;
84345;SDS011;74709;53.128;18.020;2024-02-23T03:39:36;7.40;;;4.20;;
84345;SDS011;74709;53.128;18.020;2024-02-23T03:40:40;5.30;;;3.70;;
84345;SDS011;74709;53.128;18.020;2024-02-23T03:41:43;5.70;;;3.60;;
84345;SDS011;74709;53.128;18.020;2024-02-23T03:42:46;5.20;;;3.90;;
84345;SDS011;74709;53.128;18.020;2024-02-23T03:43:49;4.90;;;3.70;;
84345;SDS011;74709;53.128;18.020;2024-02-23T03:44:52;5.60;;;3.80;;
84345;SDS011;74709;53.128;18.020;2024-02-23T03:45:54;5.70;;;4.10;;
84345;SDS011;74709;53.128;18.020;2024-02-23T03:46:57;5.40;;;3.30;;
84345;SDS011;74709;53.128;18.020;2024-02-23T03:48:01;5.50;;;4.00;;
84345;SDS011;74709;53.128;18.020;2024-02-23T03:49:06;6.00;;;3.60;;
84345;SDS011;74709;53.128;18.020;2024-02-23T03:50:09;5.40;;;3.60;;
84345;SDS011;74709;53.128;18.020;2024-02-23T03:51:12;4.40;;;3.50;;
84345;SDS011;74709;53.128;18.020;2024-02-23T03:52:14;7.80;;;3.90;;
84345;SDS011;74709;53.128;18.020;2024-02-23T03:53:18;6.30;;;3.70;;
84345;SDS011;74709;53.128;18.020;2024-02-23T03:54:21;6.50;;;3.80;;
84345;SDS011;74709;53.128;18.020;2024-02-23T03:55:24;5.60;;;3.80;;
84345;SDS011;74709;53.128;18.020;2024-02-23T03:56:27;5.40;;;3.90;;
84345;SDS011;74709;53.128;18.020;2024-02-23T03:57:30;5.40;;;3.40;;
84345;SDS011;74709;53.128;18.020;2024-02-23T03:58:33;4.00;;;3.10;;
84345;SDS011;74709;53.128;18.020;2024-02-23T03:59:36;4.90;;;3.60;;
84345;SDS011;74709;53.128;18.020;2024-02-23T04:00:40;4.70;;;3.30;;
84345;SDS011;74709;53.128;18.020;2024-02-23T04:01:42;5.80;;;3.90;;
84345;SDS011;74709;53.128;18.020;2024-02-23T04:02:46;5.00;;;3.50;;
84345;SDS011;74709;53.128;18.020;2024-02-23T04:03:49;3.90;;;3.30;;
84345;SDS011;74709;53.128;18.020;2024-02-23T04:04:52;7.20;;;4.20;;
84345;SDS011;74709;53.128;18.020;2024-02-23T04:05:56;4.90;;;3.10;;
84345;SDS011;74709;53.128;18.020;2024-02-23T04:06:59;4.80;;;3.40;;
84345;SDS011;74709;53.128;18.020;2024-02-23T04:08:02;4.70;;;3.70;;
84345;SDS011;74709;53.128;18.020;2024-02-23T04:09:05;5.30;;;3.60;;
84345;SDS011;74709;53.128;18.020;2024-02-23T04:10:08;4.50;;;3.10;;
84345;SDS011;74709;53.128;18.020;2024-02-23T04:11:12;4.90;;;4.10;;
84345;SDS011;74709;53.128;18.020;2024-02-23T04:12:15;6.60;;;3.70;;
84345;SDS011;74709;53.128;18.020;2024-02-23T04:13:18;5.90;;;3.30;;
84345;SDS011;74709;53.128;18.020;2024-02-23T04:14:21;6.80;;;4.50;;
84345;SDS011;74709;53.128;18.020;2024-02-23T04:15:24;6.60;;;4.00;;
84345;SDS011;74709;53.128;18.020;2024-02-23T04:16:27;5.40;;;3.90;;
84345;SDS011;74709;53.128;18.020;2024-02-23T04:17:30;5.00;;;3.20;;
84345;SDS011;74709;53.128;18.020;2024-02-23T04:18:32;4.30;;;3.40;;
84345;SDS011;74709;53.128;18.020;2024-02-23T04:19:35;3.70;;;3.30;;
84345;SDS011;74709;53.128;18.020;2024-02-23T04:20:38;3.30;;;2.60;;
84345;SDS011;74709;53.128;18.020;2024-02-23T04:21:41;3.70;;;3.30;;
84345;SDS011;74709;53.128;18.020;2024-02-23T04:22:44;4.70;;;3.10;;
84345;SDS011;74709;53.128;18.020;2024-02-23T04:23:47;4.60;;;3.30;;
84345;SDS011;74709;53.128;18.020;2024-02-23T04:24:50;5.90;;;3.20;;
84345;SDS011;74709;53.128;18.020;2024-02-23T04:25:53;4.00;;;3.20;;
84345;SDS011;74709;53.128;18.020;2024-02-23T04:26:56;4.60;;;3.00;;
84345;SDS011;74709;53.128;18.020;2024-02-23T04:27:59;4.30;;;2.90;;
84345;SDS011;74709;53.128;18.020;2024-02-23T04:29:02;4.10;;;2.70;;
84345;SDS011;74709;53.128;18.020;2024-02-23T04:30:05;5.60;;;3.10;;
84345;SDS011;74709;53.128;18.020;2024-02-23T04:31:08;4.30;;;3.30;;
84345;SDS011;74709;53.128;18.020;2024-02-23T04:32:12;4.90;;;3.50;;
84345;SDS011;74709;53.128;18.020;2024-02-23T04:33:15;4.80;;;3.20;;
84345;SDS011;74709;53.128;18.020;2024-02-23T04:34:18;2.90;;;2.30;;
84345;SDS011;74709;53.128;18.020;2024-02-23T04:35:20;3.50;;;2.50;;
84345;SDS011;74709;53.128;18.020;2024-02-23T04:36:23;4.20;;;3.00;;
84345;SDS011;74709;53.128;18.020;2024-02-23T04:37:26;3.70;;;2.60;;
84345;SDS011;74709;53.128;18.020;2024-02-23T04:38:29;4.50;;;3.30;;
84345;SDS011;74709;53.128;18.020;2024-02-23T04:39:32;3.30;;;2.60;;
84345;SDS011;74709;53.128;18.020;2024-02-23T04:40:35;4.60;;;2.90;;
84345;SDS011;74709;53.128;18.020;2024-02-23T04:41:38;4.20;;;2.90;;
84345;SDS011;74709;53.128;18.020;2024-02-23T04:42:43;3.30;;;2.70;;
84345;SDS011;74709;53.128;18.020;2024-02-23T04:43:47;3.10;;;2.10;;
84345;SDS011;74709;53.128;18.020;2024-02-23T04:44:50;3.00;;;2.20;;
84345;SDS011;74709;53.128;18.020;2024-02-23T04:45:55;4.00;;;2.60;;
84345;SDS011;74709;53.128;18.020;2024-02-23T04:46:58;4.30;;;2.60;;
84345;SDS011;74709;53.128;18.020;2024-02-23T04:48:01;3.90;;;2.70;;
84345;SDS011;74709;53.128;18.020;2024-02-23T04:49:05;4.30;;;2.80;;
84345;SDS011;74709;53.128;18.020;2024-02-23T04:50:08;2.90;;;2.50;;
84345;SDS011;74709;53.128;18.020;2024-02-23T04:51:11;4.00;;;2.40;;
84345;SDS011;74709;53.128;18.020;2024-02-23T04:52:14;3.60;;;2.50;;
84345;SDS011;74709;53.128;18.020;2024-02-23T04:53:17;3.80;;;2.40;;
84345;SDS011;74709;53.128;18.020;2024-02-23T04:54:20;4.50;;;2.00;;
84345;SDS011;74709;53.128;18.020;2024-02-23T04:55:23;2.60;;;1.80;;
84345;SDS011;74709;53.128;18.020;2024-02-23T04:56:25;2.30;;;2.00;;
84345;SDS011;74709;53.128;18.020;2024-02-23T04:57:28;3.80;;;2.40;;
84345;SDS011;74709;53.128;18.020;2024-02-23T04:58:31;3.10;;;2.30;;
84345;SDS011;74709;53.128;18.020;2024-02-23T04:59:34;3.40;;;2.10;;
84345;SDS011;74709;53.128;18.020;2024-02-23T05:00:37;4.00;;;2.80;;
84345;SDS011;74709;53.128;18.020;2024-02-23T05:01:40;4.40;;;3.10;;
84345;SDS011;74709;53.128;18.020;2024-02-23T05:02:42;4.50;;;2.70;;
84345;SDS011;74709;53.128;18.020;2024-02-23T05:03:45;4.30;;;2.60;;
84345;SDS011;74709;53.128;18.020;2024-02-23T05:04:48;3.80;;;2.80;;
84345;SDS011;74709;53.128;18.020;2024-02-23T05:05:51;4.50;;;3.40;;
84345;SDS011;74709;53.128;18.020;2024-02-23T05:06:56;4.40;;;3.20;;
84345;SDS011;74709;53.128;18.020;2024-02-23T05:07:59;3.70;;;2.30;;
84345;SDS011;74709;53.128;18.020;2024-02-23T05:09:02;3.20;;;2.70;;
84345;SDS011;74709;53.128;18.020;2024-02-23T05:10:06;2.50;;;2.30;;
84345;SDS011;74709;53.128;18.020;2024-02-23T05:11:09;2.60;;;2.00;;
84345;SDS011;74709;53.128;18.020;2024-02-23T05:12:12;3.80;;;2.10;;
84345;SDS011;74709;53.128;18.020;2024-02-23T05:13:14;2.70;;;2.00;;
84345;SDS011;74709;53.128;18.020;2024-02-23T05:14:17;1.60;;;1.50;;
84345;SDS011;74709;53.128;18.020;2024-02-23T05:15:20;1.70;;;1.50;;
84345;SDS011;74709;53.128;18.020;2024-02-23T05:16:23;2.20;;;1.90;;
84345;SDS011;74709;53.128;18.020;2024-02-23T05:17:26;2.00;;;1.80;;
84345;SDS011;74709;53.128;18.020;2024-02-23T05:18:30;2.80;;;1.60;;
84345;SDS011;74709;53.128;18.020;2024-02-23T05:19:33;2.40;;;1.90;;
84345;SDS011;74709;53.128;18.020;2024-02-23T05:20:36;2.70;;;1.90;;
84345;SDS011;74709;53.128;18.020;2024-02-23T05:21:39;2.40;;;1.80;;
84345;SDS011;74709;53.128;18.020;2024-02-23T05:22:41;2.30;;;1.80;;
84345;SDS011;74709;53.128;18.020;2024-02-23T05:23:44;2.40;;;2.00;;
84345;SDS011;74709;53.128;18.020;2024-02-23T05:24:48;3.20;;;1.90;;
84345;SDS011;74709;53.128;18.020;2024-02-23T05:25:51;1.60;;;1.50;;
84345;SDS011;74709;53.128;18.020;2024-02-23T05:26:54;2.80;;;2.20;;
84345;SDS011;74709;53.128;18.020;2024-02-23T05:27:57;2.30;;;1.70;;
84345;SDS011;74709;53.128;18.020;2024-02-23T05:29:00;2.50;;;1.80;;
84345;SDS011;74709;53.128;18.020;2024-02-23T05:30:04;2.50;;;1.80;;
84345;SDS011;74709;53.128;18.020;2024-02-23T05:31:09;1.60;;;1.50;;
84345;SDS011;74709;53.128;18.020;2024-02-23T05:32:12;2.50;;;1.60;;
84345;SDS011;74709;53.128;18.020;2024-02-23T05:33:15;3.30;;;2.10;;
84345;SDS011;74709;53.128;18.020;2024-02-23T05:34:18;4.10;;;1.60;;
84345;SDS011;74709;53.128;18.020;2024-02-23T05:35:21;1.70;;;1.60;;
84345;SDS011;74709;53.128;18.020;2024-02-23T05:36:24;1.40;;;1.30;;
84345;SDS011;74709;53.128;18.020;2024-02-23T05:37:27;2.10;;;1.50;;
84345;SDS011;74709;53.128;18.020;2024-02-23T05:38:29;2.00;;;1.70;;
84345;SDS011;74709;53.128;18.020;2024-02-23T05:39:33;1.90;;;1.50;;
84345;SDS011;74709;53.128;18.020;2024-02-23T05:40:36;2.30;;;1.70;;
84345;SDS011;74709;53.128;18.020;2024-02-23T05:41:39;2.80;;;1.80;;
84345;SDS011;74709;53.128;18.020;2024-02-23T05:42:42;2.40;;;1.50;;
84345;SDS011;74709;53.128;18.020;2024-02-23T05:43:44;2.00;;;1.60;;
84345;SDS011;74709;53.128;18.020;2024-02-23T05:44:47;2.30;;;1.60;;
84345;SDS011;74709;53.128;18.020;2024-02-23T05:45:53;2.10;;;1.90;;
84345;SDS011;74709;53.128;18.020;2024-02-23T05:46:59;2.80;;;1.50;;
84345;SDS011;74709;53.128;18.020;2024-02-23T05:48:02;3.20;;;2.40;;
84345;SDS011;74709;53.128;18.020;2024-02-23T05:49:05;3.00;;;1.30;;
84345;SDS011;74709;53.128;18.020;2024-02-23T05:50:09;2.50;;;1.80;;
84345;SDS011;74709;53.128;18.020;2024-02-23T05:51:12;2.70;;;1.80;;
84345;SDS011;74709;53.128;18.020;2024-02-23T05:52:17;2.70;;;1.90;;
84345;SDS011;74709;53.128;18.020;2024-02-23T05:53:23;1.80;;;1.40;;
84345;SDS011;74709;53.128;18.020;2024-02-23T05:54:26;2.00;;;1.60;;
84345;SDS011;74709;53.128;18.020;2024-02-23T05:55:29;2.60;;;1.90;;
84345;SDS011;74709;53.128;18.020;2024-02-23T05:56:32;2.70;;;1.70;;
84345;SDS011;74709;53.128;18.020;2024-02-23T05:57:34;2.80;;;1.80;;
84345;SDS011;74709;53.128;18.020;2024-02-23T05:58:37;1.70;;;1.60;;
84345;SDS011;74709;53.128;18.020;2024-02-23T05:59:41;2.60;;;1.60;;
84345;SDS011;74709;53.128;18.020;2024-02-23T06:00:44;1.70;;;1.60;;
84345;SDS011;74709;53.128;18.020;2024-02-23T06:01:46;2.00;;;1.40;;
84345;SDS011;74709;53.128;18.020;2024-02-23T06:02:49;2.20;;;1.30;;
84345;SDS011;74709;53.128;18.020;2024-02-23T06:03:52;2.10;;;1.60;;
84345;SDS011;74709;53.128;18.020;2024-02-23T06:04:57;2.60;;;1.90;;
84345;SDS011;74709;53.128;18.020;2024-02-23T06:06:00;1.90;;;1.70;;
84345;SDS011;74709;53.128;18.020;2024-02-23T06:07:03;1.80;;;1.50;;
84345;SDS011;74709;53.128;18.020;2024-02-23T06:08:06;1.80;;;1.50;;
84345;SDS011;74709;53.128;18.020;2024-02-23T06:09:09;3.10;;;1.70;;
84345;SDS011;74709;53.128;18.020;2024-02-23T06:10:12;2.70;;;1.90;;
84345;SDS011;74709;53.128;18.020;2024-02-23T06:11:15;2.60;;;1.60;;
84345;SDS011;74709;53.128;18.020;2024-02-23T06:12:18;3.00;;;1.80;;
84345;SDS011;74709;53.128;18.020;2024-02-23T06:13:21;1.30;;;1.20;;
84345;SDS011;74709;53.128;18.020;2024-02-23T06:14:23;2.00;;;1.30;;